sensor_id;sensor_type;location;lat;lon;timestamp;pressure;altitude;pressure_sealevel;temperature;humidity
6224;BME280;3145;42.726;23.342;2023-04-28T00:00:03;73334.56;;;-142.70;45.42
6224;BME280;3145;42.726;23.342;2023-04-28T00:02:30;73330.53;;;-142.70;45.28
6224;BME280;3145;42.726;23.342;2023-04-28T00:04:56;73334.56;;;-142.70;44.97
6224;BME280;3145;42.726;23.342;2023-04-28T00:07:23;73334.56;;;-142.70;45.05
6224;BME280;3145;42.726;23.342;2023-04-28T00:09:51;73358.75;;;-142.70;45.33
6224;BME280;3145;42.726;23.342;2023-04-28T00:12:19;73350.69;;;-142.70;45.08
6224;BME280;3145;42.726;23.342;2023-04-28T00:14:45;73348.66;;;-142.70;45.35
6224;BME280;3145;42.726;23.342;2023-04-28T00:17:12;73360.75;;;-142.70;45.28
6224;BME280;3145;42.726;23.342;2023-04-28T00:19:39;73364.78;;;-142.70;45.55
6224;BME280;3145;42.726;23.342;2023-04-28T00:22:06;73378.88;;;-142.70;45.72
6224;BME280;3145;42.726;23.342;2023-04-28T00:24:33;73366.81;;;-142.70;45.61
6224;BME280;3145;42.726;23.342;2023-04-28T00:27:00;73378.88;;;-142.70;46.02
6224;BME280;3145;42.726;23.342;2023-04-28T00:29:29;73384.94;;;-142.70;45.66
6224;BME280;3145;42.726;23.342;2023-04-28T00:31:56;73390.97;;;-142.70;45.88
6224;BME280;3145;42.726;23.342;2023-04-28T00:34:22;73390.97;;;-142.70;45.93
6224;BME280;3145;42.726;23.342;2023-04-28T00:36:49;73384.94;;;-142.70;45.79
6224;BME280;3145;42.726;23.342;2023-04-28T00:39:16;73407.09;;;-142.70;45.89
6224;BME280;3145;42.726;23.342;2023-04-28T00:41:43;73407.09;;;-142.70;46.28
6224;BME280;3145;42.726;23.342;2023-04-28T00:44:09;73415.16;;;-142.70;46.14
6224;BME280;3145;42.726;23.342;2023-04-28T00:46:38;73419.19;;;-142.70;46.31
6224;BME280;3145;42.726;23.342;2023-04-28T00:49:04;73423.22;;;-142.70;46.28
6224;BME280;3145;42.726;23.342;2023-04-28T00:51:31;73427.25;;;-142.70;46.20
6224;BME280;3145;42.726;23.342;2023-04-28T00:53:59;73431.28;;;-142.70;46.62
6224;BME280;3145;42.726;23.342;2023-04-28T00:56:27;73451.44;;;-142.70;47.04
6224;BME280;3145;42.726;23.342;2023-04-28T00:58:55;73463.53;;;-142.70;46.80
6224;BME280;3145;42.726;23.342;2023-04-28T01:01:22;73463.53;;;-142.70;47.39
6224;BME280;3145;42.726;23.342;2023-04-28T01:03:50;73459.50;;;-142.70;47.27
6224;BME280;3145;42.726;23.342;2023-04-28T01:06:17;73477.63;;;-142.70;47.07
6224;BME280;3145;42.726;23.342;2023-04-28T01:08:47;73481.66;;;-142.70;47.39
6224;BME280;3145;42.726;23.342;2023-04-28T01:11:14;73483.69;;;-142.70;47.41
6224;BME280;3145;42.726;23.342;2023-04-28T01:13:40;73479.66;;;-142.70;47.62
6224;BME280;3145;42.726;23.342;2023-04-28T01:16:07;73491.72;;;-142.70;47.53
6224;BME280;3145;42.726;23.342;2023-04-28T01:18:34;73493.75;;;-142.70;47.90
6224;BME280;3145;42.726;23.342;2023-04-28T01:21:02;73489.72;;;-142.70;47.93
6224;BME280;3145;42.726;23.342;2023-04-28T01:23:29;73491.72;;;-142.70;47.37
6224;BME280;3145;42.726;23.342;2023-04-28T01:25:57;73491.72;;;-142.70;47.37
6224;BME280;3145;42.726;23.342;2023-04-28T01:28:24;73483.69;;;-142.70;47.80
6224;BME280;3145;42.726;23.342;2023-04-28T01:30:51;73483.69;;;-142.70;47.52
6224;BME280;3145;42.726;23.342;2023-04-28T01:33:17;73479.66;;;-142.70;47.92
6224;BME280;3145;42.726;23.342;2023-04-28T01:35:44;73489.72;;;-142.70;47.69
6224;BME280;3145;42.726;23.342;2023-04-28T01:38:11;73483.69;;;-142.70;47.62
6224;BME280;3145;42.726;23.342;2023-04-28T01:40:37;73491.72;;;-142.70;47.57
6224;BME280;3145;42.726;23.342;2023-04-28T01:43:05;73483.69;;;-142.70;47.72
6224;BME280;3145;42.726;23.342;2023-04-28T01:45:32;73487.69;;;-142.70;47.57
6224;BME280;3145;42.726;23.342;2023-04-28T01:47:59;73489.72;;;-142.70;47.83
6224;BME280;3145;42.726;23.342;2023-04-28T01:50:25;73491.72;;;-142.70;47.90
6224;BME280;3145;42.726;23.342;2023-04-28T01:52:52;73499.78;;;-142.70;47.86
6224;BME280;3145;42.726;23.342;2023-04-28T01:55:19;73503.81;;;-142.70;47.87
6224;BME280;3145;42.726;23.342;2023-04-28T01:57:46;73515.91;;;-142.70;48.03
6224;BME280;3145;42.726;23.342;2023-04-28T02:00:14;73515.91;;;-142.70;48.20
6224;BME280;3145;42.726;23.342;2023-04-28T02:02:41;73528.00;;;-142.70;48.02
6224;BME280;3145;42.726;23.342;2023-04-28T02:05:08;73530.03;;;-142.70;48.63
6224;BME280;3145;42.726;23.342;2023-04-28T02:07:35;73532.03;;;-142.70;48.72
6224;BME280;3145;42.726;23.342;2023-04-28T02:10:02;73540.09;;;-142.70;49.28
6224;BME280;3145;42.726;23.342;2023-04-28T02:12:29;73544.13;;;-142.70;48.88
6224;BME280;3145;42.726;23.342;2023-04-28T02:14:56;73544.13;;;-142.70;49.10
6224;BME280;3145;42.726;23.342;2023-04-28T02:17:24;73552.19;;;-142.70;49.26
6224;BME280;3145;42.726;23.342;2023-04-28T02:19:53;73558.22;;;-142.70;49.13
6224;BME280;3145;42.726;23.342;2023-04-28T02:22:21;73560.25;;;-142.70;49.43
6224;BME280;3145;42.726;23.342;2023-04-28T02:24:47;73580.41;;;-142.70;49.22
6224;BME280;3145;42.726;23.342;2023-04-28T02:27:14;73572.34;;;-142.70;49.13
6224;BME280;3145;42.726;23.342;2023-04-28T02:29:41;73576.38;;;-142.70;49.50
6224;BME280;3145;42.726;23.342;2023-04-28T02:32:07;73576.38;;;-142.70;49.39
6224;BME280;3145;42.726;23.342;2023-04-28T02:34:35;73584.44;;;-142.70;49.80
6224;BME280;3145;42.726;23.342;2023-04-28T02:37:02;73598.53;;;-142.70;49.76
6224;BME280;3145;42.726;23.342;2023-04-28T02:39:29;73608.59;;;-142.70;49.71
6224;BME280;3145;42.726;23.342;2023-04-28T02:41:57;73612.63;;;-142.70;49.98
6224;BME280;3145;42.726;23.342;2023-04-28T02:44:24;73612.63;;;-142.70;49.83
6224;BME280;3145;42.726;23.342;2023-04-28T02:46:51;73614.66;;;-142.70;49.41
6224;BME280;3145;42.726;23.342;2023-04-28T02:49:17;73610.63;;;-142.70;49.65
6224;BME280;3145;42.726;23.342;2023-04-28T02:51:45;73618.69;;;-142.70;49.70
6224;BME280;3145;42.726;23.342;2023-04-28T02:54:12;73622.72;;;-142.70;49.79
6224;BME280;3145;42.726;23.342;2023-04-28T02:56:39;73620.69;;;-142.70;49.66
6224;BME280;3145;42.726;23.342;2023-04-28T02:59:06;73620.69;;;-142.70;49.62
6224;BME280;3145;42.726;23.342;2023-04-28T03:01:33;73624.72;;;-142.70;50.06
6224;BME280;3145;42.726;23.342;2023-04-28T03:04:00;73624.72;;;-142.70;50.18
6224;BME280;3145;42.726;23.342;2023-04-28T03:06:26;73624.72;;;-142.70;49.49
6224;BME280;3145;42.726;23.342;2023-04-28T03:08:55;73624.72;;;-142.70;49.90
6224;BME280;3145;42.726;23.342;2023-04-28T03:11:21;73628.75;;;-142.70;49.69
6224;BME280;3145;42.726;23.342;2023-04-28T03:13:48;73622.72;;;-142.70;50.01
6224;BME280;3145;42.726;23.342;2023-04-28T03:16:15;73626.75;;;-142.70;50.16
6224;BME280;3145;42.726;23.342;2023-04-28T03:18:42;73632.78;;;-142.70;51.02
6224;BME280;3145;42.726;23.342;2023-04-28T03:21:08;73630.78;;;-142.70;50.80
6224;BME280;3145;42.726;23.342;2023-04-28T03:23:35;73632.78;;;-142.70;50.79
6224;BME280;3145;42.726;23.342;2023-04-28T03:26:03;73640.84;;;-142.70;50.81
6224;BME280;3145;42.726;23.342;2023-04-28T03:28:30;73638.84;;;-142.70;50.41
6224;BME280;3145;42.726;23.342;2023-04-28T03:30:57;73644.88;;;-142.70;50.71
6224;BME280;3145;42.726;23.342;2023-04-28T03:33:23;73644.88;;;-142.70;51.02
6224;BME280;3145;42.726;23.342;2023-04-28T03:35:50;73652.94;;;-142.70;50.34
6224;BME280;3145;42.726;23.342;2023-04-28T03:38:17;73661.00;;;-142.70;50.76
6224;BME280;3145;42.726;23.342;2023-04-28T03:40:44;73673.09;;;-142.70;51.11
6224;BME280;3145;42.726;23.342;2023-04-28T03:43:12;73675.09;;;-142.70;51.50
6224;BME280;3145;42.726;23.342;2023-04-28T03:45:39;73648.91;;;-142.70;52.05
6224;BME280;3145;42.726;23.342;2023-04-28T03:48:06;73620.69;;;-142.70;51.89
6224;BME280;3145;42.726;23.342;2023-04-28T03:50:33;73588.47;;;-142.70;52.53
6224;BME280;3145;42.726;23.342;2023-04-28T03:53:00;73556.22;;;-142.70;51.52
6224;BME280;3145;42.726;23.342;2023-04-28T03:55:26;73528.00;;;-142.70;50.97
6224;BME280;3145;42.726;23.342;2023-04-28T03:57:53;73495.75;;;-142.70;50.64
6224;BME280;3145;42.726;23.342;2023-04-28T04:00:21;73467.56;;;-142.70;48.91
6224;BME280;3145;42.726;23.342;2023-04-28T04:02:48;73431.28;;;-142.70;52.84
6224;BME280;3145;42.726;23.342;2023-04-28T04:05:15;73393.00;;;-142.70;54.06
6224;BME280;3145;42.726;23.342;2023-04-28T04:07:41;73342.63;;;-142.70;52.53
6224;BME280;3145;42.726;23.342;2023-04-28T04:10:08;73288.22;;;-142.70;51.07
6224;BME280;3145;42.726;23.342;2023-04-28T04:12:35;73225.75;;;-142.70;48.78
6224;BME280;3145;42.726;23.342;2023-04-28T04:15:02;73165.31;;;-142.70;47.01
6224;BME280;3145;42.726;23.342;2023-04-28T04:17:31;73110.91;;;-142.70;45.36
6224;BME280;3145;42.726;23.342;2023-04-28T04:19:58;73058.53;;;-142.70;43.88
6224;BME280;3145;42.726;23.342;2023-04-28T04:22:24;73014.19;;;-142.70;42.25
6224;BME280;3145;42.726;23.342;2023-04-28T04:24:51;72975.91;;;-142.70;41.42
6224;BME280;3145;42.726;23.342;2023-04-28T04:27:18;72951.75;;;-142.70;40.67
6224;BME280;3145;42.726;23.342;2023-04-28T04:29:44;72911.44;;;-142.70;39.21
6224;BME280;3145;42.726;23.342;2023-04-28T04:32:11;72881.22;;;-142.70;39.07
6224;BME280;3145;42.726;23.342;2023-04-28T04:34:39;72832.88;;;-142.70;37.88
6224;BME280;3145;42.726;23.342;2023-04-28T04:37:06;72842.94;;;-142.70;36.06
6224;BME280;3145;42.726;23.342;2023-04-28T04:39:33;72830.84;;;-142.70;36.29
6224;BME280;3145;42.726;23.342;2023-04-28T04:41:59;72826.81;;;-142.70;35.73
6224;BME280;3145;42.726;23.342;2023-04-28T04:44:27;72788.53;;;-142.70;35.61
6224;BME280;3145;42.726;23.342;2023-04-28T04:46:53;72790.56;;;-142.70;35.28
6224;BME280;3145;42.726;23.342;2023-04-28T04:49:20;72766.38;;;-142.70;35.18
6224;BME280;3145;42.726;23.342;2023-04-28T04:51:48;72734.16;;;-142.70;34.96
6224;BME280;3145;42.726;23.342;2023-04-28T04:54:15;72709.97;;;-142.70;34.68
6224;BME280;3145;42.726;23.342;2023-04-28T04:56:42;72675.72;;;-142.70;34.02
6224;BME280;3145;42.726;23.342;2023-04-28T04:59:09;72669.69;;;-142.70;33.79
6224;BME280;3145;42.726;23.342;2023-04-28T05:01:35;72653.56;;;-142.70;33.84
6224;BME280;3145;42.726;23.342;2023-04-28T05:04:02;72665.66;;;-142.70;33.29
6224;BME280;3145;42.726;23.342;2023-04-28T05:06:29;72681.78;;;-142.70;32.96
6224;BME280;3145;42.726;23.342;2023-04-28T05:08:58;72649.53;;;-142.70;33.45
6224;BME280;3145;42.726;23.342;2023-04-28T05:11:24;72621.34;;;-142.70;33.87
6224;BME280;3145;42.726;23.342;2023-04-28T05:13:51;72577.00;;;-142.70;33.94
6224;BME280;3145;42.726;23.342;2023-04-28T05:16:18;72536.72;;;-142.70;33.55
6224;BME280;3145;42.726;23.342;2023-04-28T05:18:44;72496.44;;;-142.70;33.29
6224;BME280;3145;42.726;23.342;2023-04-28T05:21:11;72476.28;;;-142.70;32.55
6224;BME280;3145;42.726;23.342;2023-04-28T05:23:38;72438.00;;;-142.70;32.74
6224;BME280;3145;42.726;23.342;2023-04-28T05:26:06;72399.75;;;-142.70;31.93
6224;BME280;3145;42.726;23.342;2023-04-28T05:28:33;72405.78;;;-142.70;30.88
6224;BME280;3145;42.726;23.342;2023-04-28T05:30:59;72411.81;;;-142.70;32.18
6224;BME280;3145;42.726;23.342;2023-04-28T05:33:26;72379.59;;;-142.70;31.33
6224;BME280;3145;42.726;23.342;2023-04-28T05:35:53;72363.47;;;-142.70;30.88
6224;BME280;3145;42.726;23.342;2023-04-28T05:38:20;72335.28;;;-142.70;31.43
6224;BME280;3145;42.726;23.342;2023-04-28T05:40:47;72305.06;;;-142.70;30.17
6224;BME280;3145;42.726;23.342;2023-04-28T05:43:15;72299.03;;;-142.70;29.87
6224;BME280;3145;42.726;23.342;2023-04-28T05:45:42;72335.28;;;-142.70;29.89
6224;BME280;3145;42.726;23.342;2023-04-28T05:48:08;72391.69;;;-142.70;29.95
6224;BME280;3145;42.726;23.342;2023-04-28T05:50:35;72413.84;;;-142.70;30.49
6224;BME280;3145;42.726;23.342;2023-04-28T05:53:03;72399.75;;;-142.70;31.08
6224;BME280;3145;42.726;23.342;2023-04-28T05:55:30;72337.28;;;-142.70;30.20
6224;BME280;3145;42.726;23.342;2023-04-28T05:57:58;72303.06;;;-142.70;29.73
6224;BME280;3145;42.726;23.342;2023-04-28T06:00:26;72278.88;;;-142.70;29.53
6224;BME280;3145;42.726;23.342;2023-04-28T06:02:53;72260.75;;;-142.70;29.43
6224;BME280;3145;42.726;23.342;2023-04-28T06:05:20;72327.22;;;-142.70;29.43
6224;BME280;3145;42.726;23.342;2023-04-28T06:07:47;72367.50;;;-142.70;29.46
6224;BME280;3145;42.726;23.342;2023-04-28T06:10:14;72331.25;;;-142.70;29.32
6224;BME280;3145;42.726;23.342;2023-04-28T06:12:41;72295.00;;;-142.70;29.62
6224;BME280;3145;42.726;23.342;2023-04-28T06:15:08;72297.00;;;-142.70;29.19
6224;BME280;3145;42.726;23.342;2023-04-28T06:17:37;72343.34;;;-142.70;29.54
6224;BME280;3145;42.726;23.342;2023-04-28T06:20:05;72284.91;;;-142.70;29.54
6224;BME280;3145;42.726;23.342;2023-04-28T06:22:32;72228.53;;;-142.70;29.15
6224;BME280;3145;42.726;23.342;2023-04-28T06:24:58;72244.63;;;-142.70;29.26
6224;BME280;3145;42.726;23.342;2023-04-28T06:27:25;72238.59;;;-142.70;29.49
6224;BME280;3145;42.726;23.342;2023-04-28T06:29:52;72194.28;;;-142.70;29.11
6224;BME280;3145;42.726;23.342;2023-04-28T06:32:18;72170.09;;;-142.70;28.69
6224;BME280;3145;42.726;23.342;2023-04-28T06:34:47;72238.59;;;-142.70;28.53
6224;BME280;3145;42.726;23.342;2023-04-28T06:37:13;72192.25;;;-142.70;28.83
6224;BME280;3145;42.726;23.342;2023-04-28T06:39:40;72162.03;;;-142.70;28.01
6224;BME280;3145;42.726;23.342;2023-04-28T06:42:07;72109.69;;;-142.70;28.54
6224;BME280;3145;42.726;23.342;2023-04-28T06:44:34;72087.53;;;-142.70;28.07
6224;BME280;3145;42.726;23.342;2023-04-28T06:47:00;72065.38;;;-142.70;27.74
6224;BME280;3145;42.726;23.342;2023-04-28T06:49:27;72079.47;;;-142.70;27.83
6224;BME280;3145;42.726;23.342;2023-04-28T06:51:55;72139.88;;;-142.70;28.34
6224;BME280;3145;42.726;23.342;2023-04-28T06:54:22;72095.56;;;-142.70;28.14
6224;BME280;3145;42.726;23.342;2023-04-28T06:56:48;72065.38;;;-142.70;27.70
6224;BME280;3145;42.726;23.342;2023-04-28T06:59:15;72033.13;;;-142.70;27.56
6224;BME280;3145;42.726;23.342;2023-04-28T07:01:42;72021.06;;;-142.70;27.72
6224;BME280;3145;42.726;23.342;2023-04-28T07:04:09;72083.50;;;-142.70;28.33
6224;BME280;3145;42.726;23.342;2023-04-28T07:06:35;72099.59;;;-142.70;28.06
6224;BME280;3145;42.726;23.342;2023-04-28T07:09:03;72093.56;;;-142.70;28.08
6224;BME280;3145;42.726;23.342;2023-04-28T07:11:30;72085.50;;;-142.70;28.11
6224;BME280;3145;42.726;23.342;2023-04-28T07:13:57;72047.22;;;-142.70;28.33
6224;BME280;3145;42.726;23.342;2023-04-28T07:16:24;72079.47;;;-142.70;27.78
6224;BME280;3145;42.726;23.342;2023-04-28T07:18:51;72113.69;;;-142.70;28.69
6224;BME280;3145;42.726;23.342;2023-04-28T07:21:18;72061.34;;;-142.70;28.20
6224;BME280;3145;42.726;23.342;2023-04-28T07:23:46;72045.22;;;-142.70;28.11
6224;BME280;3145;42.726;23.342;2023-04-28T07:26:14;72071.41;;;-142.70;27.24
6224;BME280;3145;42.726;23.342;2023-04-28T07:28:42;72077.44;;;-142.70;27.01
6224;BME280;3145;42.726;23.342;2023-04-28T07:31:09;72081.47;;;-142.70;28.30
6224;BME280;3145;42.726;23.342;2023-04-28T07:33:35;72031.13;;;-142.70;27.78
6224;BME280;3145;42.726;23.342;2023-04-28T07:36:02;71988.81;;;-142.70;27.71
6224;BME280;3145;42.726;23.342;2023-04-28T07:38:29;71956.59;;;-142.70;27.06
6224;BME280;3145;42.726;23.342;2023-04-28T07:40:56;71948.53;;;-142.70;25.92
6224;BME280;3145;42.726;23.342;2023-04-28T07:43:24;71962.63;;;-142.70;26.14
6224;BME280;3145;42.726;23.342;2023-04-28T07:45:51;71978.75;;;-142.70;26.35
6224;BME280;3145;42.726;23.342;2023-04-28T07:48:18;71942.50;;;-142.70;26.18
6224;BME280;3145;42.726;23.342;2023-04-28T07:50:45;71952.56;;;-142.70;26.03
6224;BME280;3145;42.726;23.342;2023-04-28T07:53:12;71972.72;;;-142.70;26.09
6224;BME280;3145;42.726;23.342;2023-04-28T07:55:39;72071.41;;;-142.70;26.80
6224;BME280;3145;42.726;23.342;2023-04-28T07:58:06;72049.25;;;-142.70;26.77
6224;BME280;3145;42.726;23.342;2023-04-28T08:00:34;71982.78;;;-142.70;26.57
6224;BME280;3145;42.726;23.342;2023-04-28T08:03:01;71924.38;;;-142.70;26.19
6224;BME280;3145;42.726;23.342;2023-04-28T08:05:28;71984.78;;;-142.70;26.16
6224;BME280;3145;42.726;23.342;2023-04-28T08:07:54;71952.56;;;-142.70;25.96
6224;BME280;3145;42.726;23.342;2023-04-28T08:10:21;71968.69;;;-142.70;26.06
6224;BME280;3145;42.726;23.342;2023-04-28T08:12:48;71936.44;;;-142.70;25.54
6224;BME280;3145;42.726;23.342;2023-04-28T08:15:15;71984.78;;;-142.70;25.82
6224;BME280;3145;42.726;23.342;2023-04-28T08:17:43;71948.53;;;-142.70;26.27
6224;BME280;3145;42.726;23.342;2023-04-28T08:20:10;71976.75;;;-142.70;25.61
6224;BME280;3145;42.726;23.342;2023-04-28T08:22:39;71932.44;;;-142.70;26.20
6224;BME280;3145;42.726;23.342;2023-04-28T08:25:07;71942.50;;;-142.70;26.24
6224;BME280;3145;42.726;23.342;2023-04-28T08:27:35;71910.28;;;-142.70;26.25
6224;BME280;3145;42.726;23.342;2023-04-28T08:30:03;71882.06;;;-142.70;25.79
6224;BME280;3145;42.726;23.342;2023-04-28T08:32:29;71872.00;;;-142.70;25.79
6224;BME280;3145;42.726;23.342;2023-04-28T08:34:58;71882.06;;;-142.70;26.16
6224;BME280;3145;42.726;23.342;2023-04-28T08:37:25;71888.13;;;-142.70;25.44
6224;BME280;3145;42.726;23.342;2023-04-28T08:39:52;71831.72;;;-142.70;25.39
6224;BME280;3145;42.726;23.342;2023-04-28T08:42:28;71791.44;;;-142.70;25.16
6224;BME280;3145;42.726;23.342;2023-04-28T08:44:56;71855.88;;;-142.70;25.18
6224;BME280;3145;42.726;23.342;2023-04-28T08:47:26;71876.03;;;-142.70;25.93
6224;BME280;3145;42.726;23.342;2023-04-28T08:50:02;71952.56;;;-142.70;25.25
6224;BME280;3145;42.726;23.342;2023-04-28T08:52:29;71892.16;;;-142.70;25.44
6224;BME280;3145;42.726;23.342;2023-04-28T08:54:57;71859.91;;;-142.70;25.57
6224;BME280;3145;42.726;23.342;2023-04-28T08:57:25;71863.94;;;-142.70;25.12
6224;BME280;3145;42.726;23.342;2023-04-28T08:59:52;71876.03;;;-142.70;25.91
6224;BME280;3145;42.726;23.342;2023-04-28T09:02:19;71867.97;;;-142.70;25.92
6224;BME280;3145;42.726;23.342;2023-04-28T09:04:46;71952.56;;;-142.70;26.12
6224;BME280;3145;42.726;23.342;2023-04-28T09:07:15;72004.94;;;-142.70;26.26
6224;BME280;3145;42.726;23.342;2023-04-28T09:09:41;72061.34;;;-142.70;26.26
6224;BME280;3145;42.726;23.342;2023-04-28T09:12:09;72045.22;;;-142.70;26.31
6224;BME280;3145;42.726;23.342;2023-04-28T09:14:37;71980.75;;;-142.70;26.25
6224;BME280;3145;42.726;23.342;2023-04-28T09:17:09;71920.34;;;-142.70;25.36
6224;BME280;3145;42.726;23.342;2023-04-28T09:19:37;71880.06;;;-142.70;25.39
6224;BME280;3145;42.726;23.342;2023-04-28T09:22:04;71928.41;;;-142.70;25.34
6224;BME280;3145;42.726;23.342;2023-04-28T09:24:33;71876.03;;;-142.70;25.33
6224;BME280;3145;42.726;23.342;2023-04-28T09:27:02;71880.06;;;-142.70;25.67
6224;BME280;3145;42.726;23.342;2023-04-28T09:29:29;71827.69;;;-142.70;25.19
6224;BME280;3145;42.726;23.342;2023-04-28T09:32:12;71940.47;;;-142.70;25.29
6224;BME280;3145;42.726;23.342;2023-04-28T09:34:42;71867.97;;;-142.70;25.01
6224;BME280;3145;42.726;23.342;2023-04-28T09:37:14;71843.81;;;-142.70;25.31
6224;BME280;3145;42.726;23.342;2023-04-28T09:39:43;71775.31;;;-142.70;24.74
6224;BME280;3145;42.726;23.342;2023-04-28T09:42:10;71859.91;;;-142.70;24.91
6224;BME280;3145;42.726;23.342;2023-04-28T09:44:56;71803.53;;;-142.70;24.68
6224;BME280;3145;42.726;23.342;2023-04-28T09:47:23;71783.38;;;-142.70;24.04
6224;BME280;3145;42.726;23.342;2023-04-28T09:49:53;71779.34;;;-142.70;24.40
6224;BME280;3145;42.726;23.342;2023-04-28T09:52:21;71809.56;;;-142.70;24.99
6224;BME280;3145;42.726;23.342;2023-04-28T09:54:50;71781.38;;;-142.70;25.06
6224;BME280;3145;42.726;23.342;2023-04-28T09:57:18;71795.47;;;-142.70;26.14
6224;BME280;3145;42.726;23.342;2023-04-28T09:59:46;71763.25;;;-142.70;24.76
6224;BME280;3145;42.726;23.342;2023-04-28T10:02:14;71739.06;;;-142.70;24.59
6224;BME280;3145;42.726;23.342;2023-04-28T10:04:43;71690.72;;;-142.70;24.14
6224;BME280;3145;42.726;23.342;2023-04-28T10:07:11;71670.59;;;-142.70;24.21
6224;BME280;3145;42.726;23.342;2023-04-28T10:09:39;71638.38;;;-142.70;24.23
6224;BME280;3145;42.726;23.342;2023-04-28T10:12:09;71622.25;;;-142.70;23.65
6224;BME280;3145;42.726;23.342;2023-04-28T10:14:37;71622.25;;;-142.70;23.75
6224;BME280;3145;42.726;23.342;2023-04-28T10:17:04;71606.16;;;-142.70;23.22
6224;BME280;3145;42.726;23.342;2023-04-28T10:19:31;71626.28;;;-142.70;23.01
6224;BME280;3145;42.726;23.342;2023-04-28T10:22:06;71755.19;;;-142.70;24.33
6224;BME280;3145;42.726;23.342;2023-04-28T10:24:50;71761.22;;;-142.70;24.46
6224;BME280;3145;42.726;23.342;2023-04-28T10:27:20;71747.13;;;-142.70;22.91
6224;BME280;3145;42.726;23.342;2023-04-28T10:30:09;71718.94;;;-142.70;24.01
6224;BME280;3145;42.726;23.342;2023-04-28T10:32:41;71720.94;;;-142.70;24.11
6224;BME280;3145;42.726;23.342;2023-04-28T10:35:42;71708.88;;;-142.70;23.23
6224;BME280;3145;42.726;23.342;2023-04-28T10:38:10;71654.47;;;-142.70;23.62
6224;BME280;3145;42.726;23.342;2023-04-28T10:40:39;71682.69;;;-142.70;23.42
6224;BME280;3145;42.726;23.342;2023-04-28T10:43:08;71747.13;;;-142.70;23.30
6224;BME280;3145;42.726;23.342;2023-04-28T10:45:58;71664.56;;;-142.70;23.19
6224;BME280;3145;42.726;23.342;2023-04-28T10:48:52;71628.31;;;-142.70;23.70
6224;BME280;3145;42.726;23.342;2023-04-28T10:51:27;71614.19;;;-142.70;23.01
6224;BME280;3145;42.726;23.342;2023-04-28T10:54:12;71630.31;;;-142.70;22.62
6224;BME280;3145;42.726;23.342;2023-04-28T10:56:41;71755.19;;;-142.70;22.38
6224;BME280;3145;42.726;23.342;2023-04-28T10:59:29;71720.94;;;-142.70;23.04
6224;BME280;3145;42.726;23.342;2023-04-28T11:05:17;71586.00;;;-142.70;23.41
6224;BME280;3145;42.726;23.342;2023-04-28T11:11:21;71622.25;;;-142.70;22.23
6224;BME280;3145;42.726;23.342;2023-04-28T11:13:50;71739.06;;;-142.70;23.74
6224;BME280;3145;42.726;23.342;2023-04-28T11:16:22;71674.63;;;-142.70;24.58
6224;BME280;3145;42.726;23.342;2023-04-28T11:18:57;71634.34;;;-142.70;24.71
6224;BME280;3145;42.726;23.342;2023-04-28T11:21:27;71666.56;;;-142.70;24.95
6224;BME280;3145;42.726;23.342;2023-04-28T11:23:54;71702.81;;;-142.70;24.10
6224;BME280;3145;42.726;23.342;2023-04-28T11:26:21;71704.84;;;-142.70;24.72
6224;BME280;3145;42.726;23.342;2023-04-28T11:28:50;71698.78;;;-142.70;24.96
6224;BME280;3145;42.726;23.342;2023-04-28T11:31:18;71702.81;;;-142.70;25.06
6224;BME280;3145;42.726;23.342;2023-04-28T11:33:49;71660.53;;;-142.70;24.97
6224;BME280;3145;42.726;23.342;2023-04-28T11:36:27;71642.41;;;-142.70;24.30
6224;BME280;3145;42.726;23.342;2023-04-28T11:38:54;71626.28;;;-142.70;24.78
6224;BME280;3145;42.726;23.342;2023-04-28T11:41:22;71600.09;;;-142.70;24.60
6224;BME280;3145;42.726;23.342;2023-04-28T11:43:49;71594.06;;;-142.70;24.86
6224;BME280;3145;42.726;23.342;2023-04-28T11:46:17;71610.19;;;-142.70;24.26
6224;BME280;3145;42.726;23.342;2023-04-28T11:48:44;71573.94;;;-142.70;24.36
6224;BME280;3145;42.726;23.342;2023-04-28T11:51:30;71658.50;;;-142.70;23.71
6224;BME280;3145;42.726;23.342;2023-04-28T11:53:58;71640.38;;;-142.70;24.90
6224;BME280;3145;42.726;23.342;2023-04-28T11:56:25;71628.31;;;-142.70;24.60
6224;BME280;3145;42.726;23.342;2023-04-28T11:59:02;71628.31;;;-142.70;25.01
6224;BME280;3145;42.726;23.342;2023-04-28T12:01:30;71592.06;;;-142.70;24.98
6224;BME280;3145;42.726;23.342;2023-04-28T12:03:58;71602.13;;;-142.70;24.58
6224;BME280;3145;42.726;23.342;2023-04-28T12:06:25;71602.13;;;-142.70;25.22
6224;BME280;3145;42.726;23.342;2023-04-28T12:08:54;71610.19;;;-142.70;25.56
6224;BME280;3145;42.726;23.342;2023-04-28T12:11:21;71553.78;;;-142.70;24.50
6224;BME280;3145;42.726;23.342;2023-04-28T12:14:05;71521.56;;;-142.70;24.81
6224;BME280;3145;42.726;23.342;2023-04-28T12:16:42;71581.97;;;-142.70;25.44
6224;BME280;3145;42.726;23.342;2023-04-28T12:19:11;71523.56;;;-142.70;24.61
6224;BME280;3145;42.726;23.342;2023-04-28T12:21:39;71527.59;;;-142.70;24.14
6224;BME280;3145;42.726;23.342;2023-04-28T12:24:19;71602.13;;;-142.70;24.86
6224;BME280;3145;42.726;23.342;2023-04-28T12:26:47;71586.00;;;-142.70;23.78
6224;BME280;3145;42.726;23.342;2023-04-28T12:32:18;71545.72;;;-142.70;24.63
6224;BME280;3145;42.726;23.342;2023-04-28T12:34:45;71541.69;;;-142.70;24.83
6224;BME280;3145;42.726;23.342;2023-04-28T12:37:12;71557.81;;;-142.70;24.93
6224;BME280;3145;42.726;23.342;2023-04-28T12:39:41;71569.91;;;-142.70;24.50
6224;BME280;3145;42.726;23.342;2023-04-28T12:42:08;71577.94;;;-142.70;24.65
6224;BME280;3145;42.726;23.342;2023-04-28T12:44:35;71553.78;;;-142.70;25.02
6224;BME280;3145;42.726;23.342;2023-04-28T12:47:04;71545.72;;;-142.70;25.06
6224;BME280;3145;42.726;23.342;2023-04-28T12:49:32;71507.47;;;-142.70;24.89
6224;BME280;3145;42.726;23.342;2023-04-28T12:51:59;71515.53;;;-142.70;24.97
6224;BME280;3145;42.726;23.342;2023-04-28T12:54:26;71509.47;;;-142.70;24.86
6224;BME280;3145;42.726;23.342;2023-04-28T12:56:54;71521.56;;;-142.70;24.88
6224;BME280;3145;42.726;23.342;2023-04-28T12:59:21;71523.56;;;-142.70;24.84
6224;BME280;3145;42.726;23.342;2023-04-28T13:01:48;71521.56;;;-142.70;24.41
6224;BME280;3145;42.726;23.342;2023-04-28T13:04:15;71521.56;;;-142.70;25.18